Time;durP1;ratioP1;P1;durP2;ratioP2;P2;SDS_P1;SDS_P2;PMS_P1;PMS_P2;Temp;Humidity;BMP_temperature;BMP_pressure;BME280_temperature;BME280_humidity;BME280_pressure;Samples;Min_cycle;Max_cycle;Signal;HPM_P1;HPM_P2
2022/02/10 00:15:17;;;;;;;23.98;10.65;;;8.80;99.90;;;;;;4996446;28;20049;-60
2022/02/10 00:36:40;;;;;;;22.75;10.07;;;8.70;99.90;;;;;;4996220;28;20040;-61
2022/02/10 00:39:28;;;;;;;18.60;9.60;;;8.70;99.90;;;;;;4999093;28;20092;-61
2022/02/10 00:41:54;;;;;;;18.50;9.15;;;8.70;99.90;;;;;;5001683;28;20481;-63
2022/02/10 00:44:19;;;;;;;21.55;10.25;;;8.70;99.90;;;;;;5000910;28;20180;-60
2022/02/10 00:46:45;;;;;;;19.00;8.45;;;8.70;99.90;;;;;;5001072;28;20038;-60
2022/02/10 00:49:11;;;;;;;20.98;8.75;;;8.70;99.90;;;;;;4999331;28;20030;-61
2022/02/10 00:51:36;;;;;;;20.65;8.35;;;8.70;99.90;;;;;;5002634;28;20474;-60
2022/02/10 00:54:02;;;;;;;15.75;7.65;;;8.80;99.90;;;;;;5003322;28;20080;-61
2022/02/10 00:56:29;;;;;;;18.33;8.65;;;8.80;99.90;;;;;;4999909;28;20046;-61
2022/02/10 00:59:10;;;;;;;21.35;9.05;;;8.80;99.90;;;;;;5002594;28;20068;-61
2022/02/10 01:10:28;;;;;;;15.57;8.07;;;8.80;99.90;;;;;;4980132;28;20137;-62
2022/02/10 01:31:33;;;;;;;19.98;8.27;;;8.60;99.90;;;;;;4995470;28;20528;-61
2022/02/10 01:33:59;;;;;;;21.70;8.35;;;8.60;99.90;;;;;;5002408;28;20501;-62
2022/02/10 01:36:24;;;;;;;18.38;7.70;;;8.60;99.90;;;;;;4998841;28;20058;-61
2022/02/10 01:38:50;;;;;;;20.00;8.05;;;8.60;99.90;;;;;;5000809;28;20085;-60
2022/02/10 02:03:24;;;;;;;21.55;9.02;;;8.50;99.90;;;;;;4998231;28;20048;-62
2022/02/10 02:06:00;;;;;;;18.27;8.68;;;8.50;99.90;;;;;;4999146;28;20521;-61
2022/02/10 02:08:28;;;;;;;20.13;8.57;;;8.50;99.90;;;;;;4994921;28;20042;-61
2022/02/10 02:10:55;;;;;;;17.17;7.93;;;8.50;99.90;;;;;;5001583;28;20448;-61
2022/02/10 02:13:21;;;;;;;16.52;8.23;;;8.50;99.90;;;;;;4998651;28;20046;-61
2022/02/10 02:15:47;;;;;;;18.23;8.10;;;8.50;99.90;;;;;;5000468;28;20038;-61
2022/02/10 02:18:13;;;;;;;20.63;9.25;;;8.40;99.90;;;;;;4999871;28;20037;-61
2022/02/10 02:20:38;;;;;;;18.27;8.68;;;8.40;99.90;;;;;;5001908;28;20549;-61
2022/02/10 02:23:05;;;;;;;23.48;9.38;;;8.40;99.90;;;;;;4998670;28;20030;-61
2022/02/10 02:25:30;;;;;;;19.85;8.75;;;8.40;99.90;;;;;;5001379;28;20692;-61
2022/02/10 02:27:58;;;;;;;18.63;8.00;;;8.30;99.90;;;;;;4991312;28;20038;-62
2022/02/10 02:30:37;;;;;;;26.90;8.88;;;8.30;99.90;;;;;;4993401;28;20417;-61
2022/02/10 02:35:44;;;;;;;18.77;9.15;;;8.30;99.90;;;;;;4999494;28;20125;-61
2022/02/10 03:05:55;;;;;;;21.77;8.85;;;8.40;99.90;;;;;;4997000;28;20817;-61
2022/02/10 03:08:22;;;;;;;24.90;10.05;;;8.40;99.90;;;;;;4999098;28;20030;-61
2022/02/10 03:13:28;;;;;;;24.63;10.40;;;8.40;99.90;;;;;;4998381;28;20512;-61
2022/02/10 04:05:09;;;;;;;28.98;11.52;;;8.30;99.90;;;;;;5001950;28;20030;-61
2022/02/10 04:07:56;;;;;;;27.55;11.02;;;8.20;99.90;;;;;;5000585;28;20112;-60
2022/02/10 04:15:41;;;;;;;28.48;11.45;;;8.20;99.90;;;;;;5000138;28;20554;-62
2022/02/10 04:18:45;;;;;;;30.02;12.65;;;8.20;99.90;;;;;;4996898;28;20066;-61
2022/02/10 04:32:05;;;;;;;26.95;11.38;;;8.20;99.90;;;;;;5003713;28;20049;-61
2022/02/10 05:03:24;;;;;;;39.10;13.85;;;8.10;99.90;;;;;;5000759;28;20355;-60
2022/02/10 05:16:48;;;;;;;38.08;13.27;;;8.10;99.90;;;;;;5001106;28;20037;-61
2022/02/10 05:34:58;;;;;;;31.23;9.45;;;8.10;99.90;;;;;;5008458;28;20041;-62
2022/02/10 05:37:29;;;;;;;25.45;8.98;;;8.10;99.90;;;;;;5000095;28;20038;-63
2022/02/10 05:39:57;;;;;;;20.02;7.65;;;8.10;99.90;;;;;;5003631;28;20037;-62
2022/02/10 05:48:20;;;;;;;13.88;5.53;;;8.00;99.90;;;;;;4977299;28;20034;-62
2022/02/10 07:06:29;;;;;;;5.47;2.08;;;7.20;99.90;;;;;;4995298;28;20037;-61
2022/02/10 07:11:53;;;;;;;6.93;2.15;;;7.20;99.90;;;;;;4998576;28;20034;-62
2022/02/10 07:52:53;;;;;;;10.90;4.10;;;7.40;99.90;;;;;;4997561;28;20030;-60
2022/02/10 07:58:10;;;;;;;9.32;4.10;;;7.40;99.90;;;;;;4993398;28;20044;-62
2022/02/10 08:04:29;;;;;;;13.30;4.60;;;7.50;99.90;;;;;;4993789;28;20117;-64
2022/02/10 09:01:27;;;;;;;12.88;5.10;;;8.10;99.90;;;;;;4992888;28;20034;-62
2022/02/10 10:01:41;;;;;;;4.55;1.33;;;8.90;99.90;;;;;;4980983;28;20026;-62
2022/02/10 10:04:15;;;;;;;5.20;2.13;;;9.00;99.90;;;;;;4995985;28;20042;-61
2022/02/10 10:12:32;;;;;;;5.70;0.98;;;9.20;99.90;;;;;;4992070;28;20037;-61
2022/02/10 10:15:24;;;;;;;5.65;1.13;;;9.30;99.90;;;;;;4994674;28;20034;-62
2022/02/10 10:18:16;;;;;;;8.07;1.58;;;9.50;99.90;;;;;;4994671;28;20049;-61
2022/02/10 10:21:15;;;;;;;2.75;0.68;;;9.60;99.90;;;;;;4996632;28;20119;-63
2022/02/10 10:54:39;;;;;;;4.70;0.80;;;9.30;99.90;;;;;;5003326;28;20129;-62
2022/02/10 10:57:19;;;;;;;5.32;1.05;;;9.40;99.90;;;;;;5000745;28;20121;-63
2022/02/10 11:39:21;;;;;;;5.15;0.75;;;9.60;99.90;;;;;;4999193;28;20116;-61
2022/02/10 14:09:11;;;;;;;6.28;0.82;;;9.50;99.90;;;;;;4995495;28;20033;-62
2022/02/10 14:17:02;;;;;;;8.13;0.85;;;9.50;99.90;;;;;;5001148;28;20162;-61
2022/02/10 14:22:09;;;;;;;5.95;0.82;;;9.30;99.90;;;;;;4998751;28;20022;-63
2022/02/10 14:27:20;;;;;;;5.72;1.02;;;9.20;99.90;;;;;;4999274;28;20041;-62
2022/02/10 14:29:47;;;;;;;9.55;0.80;;;9.30;99.90;;;;;;4999265;28;20045;-64
2022/02/10 14:32:16;;;;;;;9.23;0.50;;;9.10;99.90;;;;;;5000899;28;20026;-63
2022/02/10 14:34:43;;;;;;;9.70;0.95;;;9.10;99.90;;;;;;5000106;28;20238;-61
2022/02/10 14:37:23;;;;;;;3.85;0.65;;;9.20;99.90;;;;;;4999641;28;20497;-61
2022/02/10 15:20:38;;;;;;;11.25;1.58;;;8.50;99.90;;;;;;5000206;28;20053;-62
2022/02/10 16:17:18;;;;;;;7.07;1.13;;;7.70;99.90;;;;;;4998332;28;20049;-64
2022/02/10 16:19:46;;;;;;;11.25;2.55;;;7.60;99.90;;;;;;5003584;28;20038;-62
2022/02/10 16:25:01;;;;;;;5.65;0.90;;;7.60;99.90;;;;;;5002233;28;20034;-64
2022/02/10 16:27:29;;;;;;;7.80;1.10;;;7.60;99.90;;;;;;5000602;28;20040;-62
2022/02/10 16:30:02;;;;;;;9.52;1.30;;;7.50;99.90;;;;;;4999785;28;20402;-63
2022/02/10 16:32:29;;;;;;;6.25;0.85;;;7.50;99.90;;;;;;4999783;28;20041;-62
2022/02/10 16:34:56;;;;;;;10.20;1.70;;;7.50;99.90;;;;;;4995430;28;20038;-62
2022/02/10 16:37:22;;;;;;;9.82;2.55;;;7.50;99.90;;;;;;4999254;28;20042;-62
2022/02/10 16:39:48;;;;;;;16.67;1.92;;;7.40;99.90;;;;;;5000939;28;20437;-63
2022/02/10 16:42:16;;;;;;;9.98;0.90;;;7.40;99.90;;;;;;5000005;28;20026;-63
2022/02/10 16:44:43;;;;;;;2.38;0.95;;;7.40;99.90;;;;;;5000677;28;20117;-63
2022/02/10 16:47:10;;;;;;;5.80;0.73;;;7.40;99.90;;;;;;5001187;28;20021;-63
2022/02/10 16:49:39;;;;;;;2.83;0.80;;;7.30;99.90;;;;;;5000485;28;20046;-62
2022/02/10 16:52:07;;;;;;;8.77;0.75;;;7.30;99.90;;;;;;5000368;28;20030;-63
2022/02/10 16:54:43;;;;;;;4.97;1.02;;;7.30;99.90;;;;;;4999116;28;20533;-62
2022/02/10 17:00:08;;;;;;;7.18;1.05;;;7.20;99.90;;;;;;4999368;28;20037;-63
2022/02/10 17:19:03;;;;;;;3.13;0.88;;;7.00;99.90;;;;;;4999871;28;20070;-62
2022/02/10 17:27:18;;;;;;;11.73;1.58;;;6.90;99.90;;;;;;4996317;28;20121;-63
2022/02/10 17:32:50;;;;;;;7.55;1.30;;;6.90;99.90;;;;;;4998777;28;20031;-61
2022/02/10 17:35:34;;;;;;;8.85;1.35;;;6.80;99.90;;;;;;4999025;28;20040;-61
2022/02/10 17:53:46;;;;;;;19.50;2.65;;;6.80;99.90;;;;;;5001209;28;20033;-62
2022/02/10 17:56:12;;;;;;;9.90;1.30;;;6.80;99.90;;;;;;4998863;28;20401;-63
2022/02/10 17:58:38;;;;;;;9.02;1.50;;;6.80;99.90;;;;;;5000773;28;20034;-62
2022/02/10 18:01:05;;;;;;;13.75;2.47;;;6.80;99.90;;;;;;5000283;28;20865;-62
2022/02/10 18:03:31;;;;;;;10.15;1.23;;;6.70;99.90;;;;;;4999887;28;20035;-62
2022/02/10 18:08:42;;;;;;;5.57;1.65;;;6.70;99.90;;;;;;4998875;28;20050;-61
2022/02/10 18:13:53;;;;;;;4.28;1.00;;;6.60;99.90;;;;;;5003072;28;20065;-64
2022/02/10 19:07:18;;;;;;;9.60;1.42;;;6.30;99.90;;;;;;5005894;28;20038;-63
2022/02/10 19:09:47;;;;;;;12.95;1.17;;;6.30;99.90;;;;;;4997471;28;20110;-62
2022/02/10 19:12:27;;;;;;;6.40;1.30;;;6.30;99.90;;;;;;5008742;28;20125;-64
2022/02/10 19:15:05;;;;;;;7.05;1.30;;;6.30;99.90;;;;;;5002698;28;20112;-66
2022/02/10 19:17:31;;;;;;;5.50;0.90;;;6.30;99.90;;;;;;5005458;28;20049;-66
2022/02/10 19:19:56;;;;;;;10.85;0.80;;;6.30;99.90;;;;;;5000302;28;20034;-62
2022/02/10 19:22:22;;;;;;;7.25;1.00;;;6.20;99.90;;;;;;5001510;28;20061;-63
2022/02/10 19:24:48;;;;;;;4.28;0.95;;;6.20;99.90;;;;;;5000420;28;20072;-63
2022/02/10 19:27:16;;;;;;;4.88;1.17;;;6.20;99.90;;;;;;4996410;28;20091;-61
2022/02/10 19:29:43;;;;;;;6.35;1.42;;;6.20;99.90;;;;;;5000620;28;20038;-62
2022/02/10 19:32:13;;;;;;;7.63;0.90;;;6.20;99.90;;;;;;5003243;28;20073;-61
2022/02/10 19:34:40;;;;;;;9.23;2.43;;;6.10;99.90;;;;;;5002634;28;20064;-62
2022/02/10 19:37:06;;;;;;;7.88;1.23;;;6.10;99.90;;;;;;5001491;28;20034;-62
2022/02/10 19:39:34;;;;;;;7.07;1.70;;;6.00;99.90;;;;;;5002370;28;20036;-62
2022/02/10 19:42:00;;;;;;;10.90;2.35;;;6.00;99.90;;;;;;5003554;28;20046;-61
2022/02/10 19:44:26;;;;;;;5.80;1.20;;;6.00;99.90;;;;;;5001072;28;20512;-61
2022/02/10 19:46:52;;;;;;;8.88;2.03;;;5.90;99.90;;;;;;4999639;28;20485;-62
2022/02/10 19:49:22;;;;;;;8.00;1.45;;;5.90;99.90;;;;;;5003457;28;20033;-61
2022/02/10 19:51:48;;;;;;;9.45;1.13;;;5.90;99.90;;;;;;4999668;28;20451;-61
2022/02/10 19:54:22;;;;;;;12.30;1.55;;;5.80;99.90;;;;;;5002788;28;20029;-61
2022/02/10 19:56:48;;;;;;;6.97;1.55;;;5.80;99.90;;;;;;4999067;28;20470;-62
2022/02/10 19:59:18;;;;;;;13.88;1.80;;;5.80;99.90;;;;;;5003389;28;20030;-62
2022/02/10 20:01:44;;;;;;;5.55;1.10;;;5.80;99.90;;;;;;4999307;28;20057;-62
2022/02/10 20:04:11;;;;;;;8.10;1.17;;;5.70;99.90;;;;;;4999626;28;20122;-63
2022/02/10 20:06:36;;;;;;;8.70;1.55;;;5.70;99.90;;;;;;5002709;28;20405;-62
2022/02/10 20:09:04;;;;;;;10.68;1.52;;;5.70;99.90;;;;;;5000328;28;20026;-62
2022/02/10 20:11:29;;;;;;;6.45;1.63;;;5.60;99.90;;;;;;5000412;28;20054;-62
2022/02/10 20:13:55;;;;;;;7.90;2.05;;;5.60;99.90;;;;;;5001872;28;20042;-62
2022/02/10 20:16:21;;;;;;;6.57;2.17;;;5.60;99.90;;;;;;4999825;28;20085;-61
2022/02/10 20:18:48;;;;;;;8.57;1.83;;;5.60;99.90;;;;;;5002172;28;20136;-62
2022/02/10 20:21:14;;;;;;;9.90;1.45;;;5.50;99.90;;;;;;4999588;28;20026;-62
2022/02/10 20:23:40;;;;;;;11.25;1.65;;;5.60;99.90;;;;;;4995405;28;20437;-62
2022/02/10 20:26:06;;;;;;;6.00;1.13;;;5.50;99.90;;;;;;5002286;28;20030;-62
2022/02/10 20:28:32;;;;;;;10.18;2.42;;;5.50;99.90;;;;;;5000167;28;20070;-61
2022/02/10 20:30:59;;;;;;;9.90;1.40;;;5.50;99.90;;;;;;4999543;28;20560;-62
2022/02/10 20:33:27;;;;;;;8.75;1.08;;;5.50;99.90;;;;;;5001114;28;20044;-62
2022/02/10 20:35:56;;;;;;;6.32;1.50;;;5.50;99.90;;;;;;4998984;28;20108;-62
2022/02/10 20:38:22;;;;;;;7.68;1.13;;;5.50;99.90;;;;;;5001403;28;20561;-61
2022/02/10 20:41:13;;;;;;;6.47;1.20;;;5.50;99.90;;;;;;4998785;28;20026;-63
2022/02/10 20:43:37;;;;;;;5.97;1.77;;;5.50;99.90;;;;;;5002734;28;20042;-61
2022/02/10 20:46:06;;;;;;;5.50;1.20;;;5.50;99.90;;;;;;5001468;28;20032;-62
2022/02/10 20:48:34;;;;;;;5.80;1.33;;;5.50;99.90;;;;;;4999183;28;20110;-62
2022/02/10 20:51:01;;;;;;;6.32;2.25;;;5.50;99.90;;;;;;5000880;28;20069;-63
2022/02/10 20:53:29;;;;;;;12.68;1.98;;;5.50;99.90;;;;;;5000472;28;20038;-62
2022/02/10 20:55:58;;;;;;;4.53;1.45;;;5.60;99.90;;;;;;5000398;28;20042;-62
2022/02/10 20:58:27;;;;;;;8.90;1.10;;;5.70;99.90;;;;;;5000203;28;20149;-62
2022/02/10 21:00:55;;;;;;;5.45;1.38;;;5.70;99.90;;;;;;4999794;28;20036;-62
2022/02/10 21:03:24;;;;;;;6.78;1.48;;;5.70;99.90;;;;;;5001273;28;20056;-62
2022/02/10 21:05:53;;;;;;;7.88;2.25;;;5.80;99.90;;;;;;4999336;28;20038;-62
2022/02/10 21:10:44;;;;;;;3.08;1.02;;;5.80;99.90;;;;;;4998049;28;20121;-63
2022/02/10 21:13:12;;;;;;;10.77;1.27;;;5.80;99.90;;;;;;5002184;28;20513;-62
2022/02/10 21:15:42;;;;;;;4.40;1.10;;;5.80;99.90;;;;;;4998603;28;20092;-61
2022/02/10 21:18:08;;;;;;;7.15;1.00;;;5.80;99.90;;;;;;4994734;28;20064;-62
2022/02/10 21:20:36;;;;;;;5.20;1.02;;;5.80;99.90;;;;;;4997986;28;20429;-62
2022/02/10 21:23:21;;;;;;;4.30;1.20;;;5.70;99.90;;;;;;5000915;28;20038;-62
2022/02/10 21:25:49;;;;;;;11.48;1.27;;;5.70;99.90;;;;;;5000455;28;20030;-62
2022/02/10 21:28:19;;;;;;;5.32;2.05;;;5.60;99.90;;;;;;4999626;28;20030;-61
2022/02/10 21:30:46;;;;;;;8.20;0.88;;;5.50;99.90;;;;;;5006463;28;20092;-61
2022/02/10 21:33:46;;;;;;;6.70;0.90;;;5.50;99.90;;;;;;4998441;28;20138;-61
2022/02/10 22:10:24;;;;;;;3.40;1.10;;;4.80;99.90;;;;;;4991106;28;20045;-62
2022/02/10 22:21:05;;;;;;;5.90;0.80;;;4.70;99.90;;;;;;4989033;28;20088;-63
2022/02/10 22:23:34;;;;;;;6.65;1.27;;;4.60;99.90;;;;;;4994260;28;20026;-61
2022/02/10 22:26:03;;;;;;;9.52;1.13;;;4.60;99.90;;;;;;5005652;28;20505;-61
2022/02/10 22:29:10;;;;;;;8.65;0.95;;;4.60;99.90;;;;;;5006176;28;20442;-62
2022/02/10 22:34:24;;;;;;;5.28;1.08;;;4.50;99.90;;;;;;5001175;28;20056;-62
2022/02/10 22:36:56;;;;;;;6.60;1.80;;;4.40;99.90;;;;;;4997674;28;20042;-62
2022/02/10 22:39:21;;;;;;;12.27;0.90;;;4.40;99.90;;;;;;4998734;28;20036;-63
2022/02/10 22:41:47;;;;;;;5.10;0.98;;;4.40;99.90;;;;;;5000190;28;20030;-62
2022/02/10 22:44:13;;;;;;;6.00;1.00;;;4.40;99.90;;;;;;5000767;28;20030;-62
2022/02/10 22:46:39;;;;;;;10.13;1.10;;;4.30;99.90;;;;;;4998264;28;20054;-62
2022/02/10 22:49:05;;;;;;;11.52;2.13;;;4.30;99.90;;;;;;5001121;28;20512;-62
2022/02/10 22:51:32;;;;;;;5.72;1.70;;;4.30;99.90;;;;;;4997940;28;20034;-61
2022/02/10 22:53:58;;;;;;;4.95;0.93;;;4.30;99.90;;;;;;5000435;28;20470;-61
2022/02/10 22:56:28;;;;;;;3.80;0.70;;;4.20;99.90;;;;;;4997330;28;20040;-61
2022/02/10 22:58:56;;;;;;;3.13;0.57;;;4.20;99.90;;;;;;5000129;28;20104;-62
2022/02/10 23:01:22;;;;;;;7.63;1.05;;;4.10;99.90;;;;;;4997988;28;20449;-61
2022/02/10 23:03:47;;;;;;;7.22;1.10;;;4.20;99.90;;;;;;4998794;28;20030;-63
2022/02/10 23:06:14;;;;;;;6.10;2.00;;;4.20;99.90;;;;;;5000082;28;20030;-61
2022/02/10 23:08:40;;;;;;;5.95;0.70;;;4.20;99.90;;;;;;4997759;28;20478;-62
2022/02/10 23:11:07;;;;;;;3.88;0.70;;;4.10;99.90;;;;;;4998781;28;20070;-62
2022/02/10 23:13:34;;;;;;;8.65;0.82;;;4.10;99.90;;;;;;4997797;28;20053;-62
2022/02/10 23:16:03;;;;;;;9.57;0.85;;;4.10;99.90;;;;;;4998164;28;20030;-62
2022/02/10 23:18:31;;;;;;;12.70;1.75;;;4.10;99.90;;;;;;5000838;28;20042;-62
2022/02/10 23:20:58;;;;;;;20.15;2.17;;;4.10;99.90;;;;;;4997249;28;20030;-62
2022/02/10 23:23:26;;;;;;;8.88;1.42;;;4.10;99.90;;;;;;5000484;28;20035;-62
2022/02/10 23:25:54;;;;;;;5.32;1.50;;;4.10;99.90;;;;;;4997953;28;20083;-62
2022/02/10 23:28:29;;;;;;;8.40;1.10;;;4.10;99.90;;;;;;4999614;28;20057;-62
2022/02/10 23:30:57;;;;;;;4.95;1.30;;;4.00;99.90;;;;;;4996552;28;20073;-62
2022/02/10 23:33:33;;;;;;;10.50;1.63;;;4.10;99.90;;;;;;5000298;28;20161;-62
2022/02/10 23:39:00;;;;;;;8.27;0.80;;;4.10;99.90;;;;;;4994808;28;20097;-62
2022/02/10 23:43:54;;;;;;;12.48;1.30;;;4.10;99.90;;;;;;5000549;28;19929;-62
2022/02/10 23:46:21;;;;;;;13.52;2.20;;;4.10;99.90;;;;;;4998505;28;20038;-61
2022/02/10 23:48:47;;;;;;;9.38;0.93;;;4.20;99.90;;;;;;4999043;28;20026;-62
2022/02/10 23:51:13;;;;;;;8.88;1.02;;;4.20;99.90;;;;;;5000284;28;20041;-62
2022/02/10 23:53:39;;;;;;;5.97;1.02;;;4.20;99.90;;;;;;5001883;28;20026;-62
2022/02/10 23:56:10;;;;;;;4.47;0.85;;;4.10;99.90;;;;;;5002407;28;20034;-62
